Time;durP1;ratioP1;P1;durP2;ratioP2;P2;SDS_P1;SDS_P2;PMS_P1;PMS_P2;Temp;Humidity;BMP_temperature;BMP_pressure;BME280_temperature;BME280_humidity;BME280_pressure;Samples;Min_cycle;Max_cycle;Signal;HPM_P1;HPM_P2
2023/08/15 00:01:57;;;;;;;7.55;4.05;;;;;;;23.31;65.59;101111.59;5008220;28;20034;-77
2023/08/15 00:04:22;;;;;;;8.55;4.47;;;;;;;23.08;66.73;101121.75;5010849;28;20624;-78
2023/08/15 00:06:48;;;;;;;10.77;4.30;;;;;;;22.94;67.53;101114.00;5011308;28;20042;-78
2023/08/15 00:09:13;;;;;;;7.00;4.32;;;;;;;22.78;68.43;101111.78;5007030;28;20428;-77
2023/08/15 00:11:38;;;;;;;8.38;4.75;;;;;;;22.77;69.03;101102.00;5007568;28;20022;-77
2023/08/15 00:14:04;;;;;;;6.60;4.45;;;;;;;22.91;67.88;101092.72;5007205;28;20508;-77
2023/08/15 00:16:29;;;;;;;7.57;4.57;;;;;;;22.94;68.04;101088.91;5012248;28;20025;-78
2023/08/15 00:18:54;;;;;;;7.75;4.65;;;;;;;22.94;67.17;101084.34;5005659;28;20053;-77
2023/08/15 00:21:19;;;;;;;7.65;4.65;;;;;;;22.93;66.78;101088.03;5003610;28;20099;-77
2023/08/15 00:23:45;;;;;;;9.77;5.03;;;;;;;22.89;67.20;101086.59;5004215;28;20587;-77
2023/08/15 00:26:10;;;;;;;7.55;5.07;;;;;;;22.54;68.38;101092.38;5009926;28;20029;-77
2023/08/15 00:28:35;;;;;;;9.20;5.32;;;;;;;22.58;68.60;101088.41;5012088;28;20026;-77
2023/08/15 00:31:00;;;;;;;8.70;4.70;;;;;;;22.59;68.58;101088.28;5006742;28;20040;-77
2023/08/15 00:33:26;;;;;;;7.22;4.47;;;;;;;22.49;68.83;101100.00;5009611;28;20033;-77
2023/08/15 00:35:51;;;;;;;7.95;4.40;;;;;;;22.38;69.16;101100.91;5004495;28;20022;-77
2023/08/15 00:38:16;;;;;;;7.15;4.68;;;;;;;22.25;69.98;101095.72;5010828;28;20076;-77
2023/08/15 00:40:42;;;;;;;9.88;4.28;;;;;;;22.22;69.85;101092.44;5004624;28;20388;-77
2023/08/15 00:43:10;;;;;;;7.60;4.30;;;;;;;22.27;69.57;101099.13;4989707;28;20148;-77
2023/08/15 00:45:39;;;;;;;7.18;4.15;;;;;;;22.37;69.07;101099.19;5009615;28;20042;-77
2023/08/15 00:48:06;;;;;;;8.35;4.60;;;;;;;22.39;68.71;101102.63;5008754;28;20057;-78
2023/08/15 00:50:32;;;;;;;8.20;4.70;;;;;;;22.47;67.57;101110.03;5008137;28;20117;-77
2023/08/15 00:52:57;;;;;;;8.02;4.93;;;;;;;22.37;68.39;101116.22;5009267;28;20104;-77
2023/08/15 00:55:24;;;;;;;9.63;4.85;;;;;;;22.34;66.89;101118.34;5010947;28;20486;-77
2023/08/15 00:57:49;;;;;;;7.47;5.30;;;;;;;22.39;67.43;101118.78;5018400;28;20030;-77
2023/08/15 01:00:15;;;;;;;11.95;5.22;;;;;;;22.45;66.07;101122.78;5011623;28;20037;-77
2023/08/15 01:02:41;;;;;;;7.55;4.65;;;;;;;22.46;64.53;101124.50;5016658;28;20079;-78
2023/08/15 01:05:07;;;;;;;8.98;4.80;;;;;;;22.45;64.84;101126.34;5012837;28;20046;-77
2023/08/15 01:07:33;;;;;;;10.00;5.50;;;;;;;22.49;64.49;101119.72;5016055;28;20030;-75
2023/08/15 01:09:59;;;;;;;9.90;4.72;;;;;;;22.50;63.85;101113.31;5012866;28;20084;-75
2023/08/15 01:12:46;;;;;;;8.23;4.78;;;;;;;22.51;64.26;101117.72;5009541;28;20068;-78
2023/08/15 01:15:33;;;;;;;14.90;5.15;;;;;;;22.44;64.56;101104.94;5005150;28;20072;-77
2023/08/15 01:18:07;;;;;;;8.98;5.15;;;;;;;22.31;64.57;101107.81;5004088;28;20026;-77
2023/08/15 01:20:35;;;;;;;9.75;4.97;;;;;;;22.25;64.99;101103.81;5003741;28;20100;-78
2023/08/15 01:23:02;;;;;;;11.27;4.95;;;;;;;22.27;64.48;101101.81;5014228;28;20083;-77
2023/08/15 01:25:30;;;;;;;11.40;5.43;;;;;;;22.27;64.75;101095.59;5007394;28;20029;-78
2023/08/15 01:27:55;;;;;;;11.20;5.20;;;;;;;22.20;64.68;101097.97;4992853;28;20080;-78
2023/08/15 01:30:23;;;;;;;9.27;4.90;;;;;;;22.21;64.43;101099.66;5010721;28;20021;-78
2023/08/15 01:32:50;;;;;;;13.38;5.50;;;;;;;22.19;65.25;101095.38;5013334;28;20390;-77
2023/08/15 01:35:36;;;;;;;8.95;4.35;;;;;;;22.11;64.13;101109.47;5008636;28;20058;-77
2023/08/15 01:38:10;;;;;;;9.18;4.47;;;;;;;22.02;64.01;101127.25;5015186;28;20036;-77
2023/08/15 01:40:37;;;;;;;10.32;4.70;;;;;;;21.93;63.49;101133.41;5008234;28;20026;-77
2023/08/15 01:43:06;;;;;;;10.13;4.97;;;;;;;21.89;64.62;101151.66;4997747;28;20026;-77
2023/08/15 01:45:33;;;;;;;11.32;4.95;;;;;;;21.91;63.82;101157.75;5012120;28;20029;-77
2023/08/15 01:47:58;;;;;;;8.52;4.60;;;;;;;21.73;64.02;101156.59;5017926;28;20075;-77
2023/08/15 01:50:24;;;;;;;11.73;4.80;;;;;;;21.55;64.34;101163.47;5011442;28;20104;-77
2023/08/15 01:52:49;;;;;;;9.55;4.85;;;;;;;21.46;65.08;101161.53;5011332;28;20026;-77
2023/08/15 01:55:14;;;;;;;10.93;4.85;;;;;;;21.50;65.30;101157.63;5010226;28;20091;-77
2023/08/15 01:57:39;;;;;;;11.43;4.20;;;;;;;21.58;64.70;101171.28;5009923;28;20411;-78
2023/08/15 02:00:05;;;;;;;9.27;4.00;;;;;;;21.58;65.56;101166.75;5009203;28;20037;-77
2023/08/15 02:02:31;;;;;;;8.65;4.32;;;;;;;21.56;63.47;101174.09;5008204;28;20197;-77
2023/08/15 02:05:01;;;;;;;11.77;3.85;;;;;;;21.43;65.06;101173.38;5013363;28;20021;-77
2023/08/15 02:07:26;;;;;;;6.38;4.28;;;;;;;21.29;64.51;101177.16;5003949;28;20053;-77
2023/08/15 02:09:52;;;;;;;9.23;3.75;;;;;;;21.20;64.69;101177.03;5011018;28;20445;-77
2023/08/15 02:12:17;;;;;;;7.53;3.85;;;;;;;21.21;65.49;101182.28;5006685;28;20662;-77
2023/08/15 02:14:42;;;;;;;10.88;4.13;;;;;;;21.15;65.29;101180.94;4992932;28;20120;-77
2023/08/15 02:17:08;;;;;;;9.18;3.75;;;;;;;21.22;65.50;101185.84;5012956;28;20029;-78
2023/08/15 02:19:33;;;;;;;8.63;3.75;;;;;;;21.19;65.19;101186.94;5010766;28;20517;-77
2023/08/15 02:21:58;;;;;;;7.75;3.35;;;;;;;21.21;64.88;101198.41;5007156;28;20734;-77
2023/08/15 02:24:23;;;;;;;7.40;3.50;;;;;;;21.19;65.29;101200.38;5007282;28;20227;-77
2023/08/15 02:26:49;;;;;;;6.72;3.28;;;;;;;21.13;64.81;101196.34;5010856;28;20021;-78
2023/08/15 02:29:15;;;;;;;6.85;3.15;;;;;;;21.20;64.52;101201.22;5006850;28;20037;-77
2023/08/15 02:31:44;;;;;;;8.85;3.58;;;;;;;21.20;65.41;101202.09;5010401;28;20030;-78
2023/08/15 02:34:09;;;;;;;7.28;3.25;;;;;;;21.21;64.63;101203.78;5016430;28;20048;-77
2023/08/15 02:36:34;;;;;;;9.02;3.33;;;;;;;21.09;66.90;101199.41;5013061;28;20525;-77
2023/08/15 02:39:00;;;;;;;9.35;3.90;;;;;;;20.96;66.09;101199.50;5010755;28;20022;-78
2023/08/15 02:41:25;;;;;;;6.78;3.38;;;;;;;21.02;65.98;101203.53;5009126;28;20036;-77
2023/08/15 02:43:50;;;;;;;10.98;3.92;;;;;;;21.03;65.95;101199.84;5010413;28;20061;-78
2023/08/15 02:46:17;;;;;;;9.20;3.92;;;;;;;21.01;65.53;101194.63;5007731;28;20030;-77
2023/08/15 02:48:42;;;;;;;10.30;3.03;;;;;;;21.01;66.98;101185.69;5014713;28;20477;-77
2023/08/15 02:51:07;;;;;;;9.30;3.70;;;;;;;21.02;65.52;101180.19;5008707;28;20088;-77
2023/08/15 02:53:33;;;;;;;10.35;3.45;;;;;;;20.92;65.72;101181.88;5011855;28;20041;-77
2023/08/15 02:55:58;;;;;;;9.50;3.42;;;;;;;20.83;65.99;101188.84;5010461;28;20469;-77
2023/08/15 02:58:23;;;;;;;7.38;3.40;;;;;;;20.69;66.31;101191.72;5016705;28;20018;-78
2023/08/15 03:00:48;;;;;;;11.00;3.80;;;;;;;20.64;66.19;101189.41;5001274;28;20029;-77
2023/08/15 03:03:14;;;;;;;6.35;3.42;;;;;;;20.62;66.72;101190.50;5014070;28;20236;-77
2023/08/15 03:05:39;;;;;;;10.75;4.35;;;;;;;20.62;68.67;101196.72;5020356;28;20119;-78
2023/08/15 03:08:04;;;;;;;11.40;3.72;;;;;;;20.51;67.71;101215.50;5003030;28;20446;-77
2023/08/15 03:10:32;;;;;;;7.18;3.55;;;;;;;20.46;67.90;101206.03;5016407;28;20461;-77
2023/08/15 03:12:58;;;;;;;8.63;3.78;;;;;;;20.52;68.35;101185.00;5003700;28;20469;-77
2023/08/15 03:15:23;;;;;;;10.65;4.35;;;;;;;20.47;68.23;101194.31;5007424;28;20022;-77
2023/08/15 03:17:50;;;;;;;9.55;3.70;;;;;;;20.32;68.44;101199.03;5007594;28;20030;-77
2023/08/15 03:20:16;;;;;;;12.02;4.05;;;;;;;20.13;69.43;101199.53;5010828;28;20500;-77
2023/08/15 03:22:43;;;;;;;9.82;4.15;;;;;;;20.12;70.27;101200.53;5009935;28;20014;-78
2023/08/15 03:25:08;;;;;;;8.60;3.83;;;;;;;20.03;69.99;101203.88;5007103;28;20160;-77
2023/08/15 03:27:33;;;;;;;9.48;3.60;;;;;;;20.12;69.88;101208.56;4992131;28;20112;-77
2023/08/15 03:29:58;;;;;;;9.68;4.30;;;;;;;20.21;68.99;101204.34;5007706;28;20063;-77
2023/08/15 03:32:24;;;;;;;7.53;3.53;;;;;;;20.24;69.10;101196.09;5000681;28;20472;-74
2023/08/15 03:34:49;;;;;;;12.05;3.92;;;;;;;20.28;68.65;101190.34;5010676;28;20022;-74
2023/08/15 03:37:14;;;;;;;11.25;4.53;;;;;;;20.20;69.25;101191.91;5010193;28;20662;-74
2023/08/15 03:39:40;;;;;;;9.02;3.78;;;;;;;20.16;69.52;101202.00;5008676;28;20080;-74
2023/08/15 03:42:05;;;;;;;10.82;4.63;;;;;;;20.01;70.03;101195.97;5007134;28;20510;-78
2023/08/15 03:44:30;;;;;;;11.93;3.90;;;;;;;19.91;70.70;101203.00;5007203;28;20030;-77
2023/08/15 03:46:56;;;;;;;10.60;4.05;;;;;;;19.92;70.21;101203.84;5010623;28;20033;-78
2023/08/15 03:49:21;;;;;;;9.57;4.15;;;;;;;19.98;70.57;101211.44;5009505;28;20547;-77
2023/08/15 03:51:46;;;;;;;6.35;3.95;;;;;;;19.99;70.22;101207.78;5004463;28;20036;-77
2023/08/15 03:54:12;;;;;;;7.13;4.07;;;;;;;19.91;70.72;101211.03;5006951;28;20427;-78
2023/08/15 03:56:37;;;;;;;7.03;3.90;;;;;;;19.92;70.37;101212.75;5006865;28;20068;-77
2023/08/15 03:59:02;;;;;;;7.47;3.63;;;;;;;19.94;70.12;101213.47;5007140;28;20477;-77
2023/08/15 04:01:28;;;;;;;8.15;3.97;;;;;;;19.96;70.05;101214.25;5006141;28;20076;-77
2023/08/15 04:03:54;;;;;;;9.68;4.15;;;;;;;19.95;71.07;101214.31;4990451;28;20081;-78
2023/08/15 04:06:20;;;;;;;11.38;4.53;;;;;;;19.88;70.53;101208.56;5008804;28;20500;-77
2023/08/15 04:08:45;;;;;;;11.35;4.55;;;;;;;19.63;71.38;101217.53;5007151;28;20017;-77
2023/08/15 04:11:10;;;;;;;9.23;4.25;;;;;;;19.59;71.20;101211.50;5006366;28;20421;-77
2023/08/15 04:13:36;;;;;;;8.07;4.10;;;;;;;19.53;71.76;101221.81;5008442;28;20146;-77
2023/08/15 04:16:01;;;;;;;12.45;4.30;;;;;;;19.48;72.06;101211.41;5010094;28;20382;-77
2023/08/15 04:18:26;;;;;;;12.98;4.65;;;;;;;19.36;72.61;101213.16;4989098;28;20032;-77
2023/08/15 04:20:52;;;;;;;12.25;4.18;;;;;;;19.33;72.91;101205.31;5004891;28;20029;-77
2023/08/15 04:23:17;;;;;;;13.02;5.25;;;;;;;19.25;72.63;101196.97;5009189;28;20041;-77
2023/08/15 04:25:44;;;;;;;11.40;4.93;;;;;;;19.24;72.97;101207.81;5008402;28;20030;-77
2023/08/15 04:28:09;;;;;;;10.70;4.28;;;;;;;19.24;72.77;101200.59;5006731;28;20531;-77
2023/08/15 04:30:34;;;;;;;9.57;4.60;;;;;;;19.26;74.17;101200.53;5007073;28;20033;-78
2023/08/15 04:33:00;;;;;;;9.65;4.50;;;;;;;19.21;73.88;101222.28;5008086;28;20092;-77
2023/08/15 04:35:26;;;;;;;12.48;4.30;;;;;;;19.25;72.96;101207.69;4995509;28;20159;-77
2023/08/15 04:37:51;;;;;;;9.48;4.22;;;;;;;19.34;72.81;101212.38;5006515;28;20068;-77
2023/08/15 04:40:29;;;;;;;9.43;4.30;;;;;;;19.40;72.72;101231.69;5010651;28;20053;-77
2023/08/15 04:42:55;;;;;;;13.02;5.05;;;;;;;19.36;72.56;101221.19;4990539;28;20033;-77
2023/08/15 04:45:20;;;;;;;10.55;4.63;;;;;;;19.37;72.85;101222.91;5005401;28;20034;-77
2023/08/15 04:47:45;;;;;;;13.15;4.72;;;;;;;19.44;72.51;101233.19;4993982;28;20140;-77
2023/08/15 04:50:10;;;;;;;11.30;5.03;;;;;;;19.43;72.51;101236.84;5007703;28;20028;-77
2023/08/15 04:52:36;;;;;;;13.68;4.80;;;;;;;19.32;73.50;101232.25;5004310;28;20560;-74
2023/08/15 04:55:01;;;;;;;13.68;5.78;;;;;;;19.06;74.48;101240.28;4995213;28;20029;-74
2023/08/15 04:57:26;;;;;;;11.68;5.20;;;;;;;18.99;74.68;101254.22;5010896;28;20034;-74
2023/08/15 04:59:51;;;;;;;11.93;4.93;;;;;;;18.93;74.60;101266.22;5020356;28;20396;-74
2023/08/15 05:02:17;;;;;;;12.60;4.70;;;;;;;18.91;75.35;101267.28;5012049;28;20030;-75
2023/08/15 05:04:42;;;;;;;15.10;5.53;;;;;;;18.83;75.54;101271.31;5012374;28;20030;-74
2023/08/15 05:07:07;;;;;;;13.88;5.30;;;;;;;18.76;76.05;101278.06;5010794;28;20050;-74
2023/08/15 05:09:32;;;;;;;16.48;5.85;;;;;;;18.65;76.67;101282.41;5017209;28;20037;-75
2023/08/15 05:11:58;;;;;;;13.35;5.68;;;;;;;18.58;77.01;101287.31;5009127;28;20195;-74
2023/08/15 05:14:23;;;;;;;10.85;5.25;;;;;;;18.67;77.06;101293.88;5010705;28;20025;-74
2023/08/15 05:16:50;;;;;;;12.13;4.93;;;;;;;18.79;76.33;101304.69;5016665;28;20064;-74
2023/08/15 05:19:15;;;;;;;14.02;5.07;;;;;;;18.80;76.84;101305.53;5015894;28;20457;-74
2023/08/15 05:21:41;;;;;;;15.15;5.57;;;;;;;18.91;76.43;101305.66;4990784;28;20052;-74
2023/08/15 05:24:07;;;;;;;13.65;5.32;;;;;;;18.99;76.28;101308.69;5010982;28;20041;-74
2023/08/15 05:26:32;;;;;;;13.40;5.55;;;;;;;19.15;75.48;101308.47;4998608;28;20040;-74
2023/08/15 05:28:57;;;;;;;13.55;5.15;;;;;;;19.32;76.31;101310.00;5008614;28;20109;-74
2023/08/15 05:31:22;;;;;;;10.07;4.90;;;;;;;19.36;75.98;101308.84;5011237;28;20484;-74
2023/08/15 05:33:48;;;;;;;16.17;6.03;;;;;;;19.23;75.34;101318.69;5008782;28;20026;-73
2023/08/15 05:36:13;;;;;;;12.57;5.55;;;;;;;19.19;75.63;101323.38;5013326;28;20038;-74
2023/08/15 05:38:38;;;;;;;13.30;5.50;;;;;;;19.17;76.24;101316.44;5018772;28;20480;-74
2023/08/15 05:41:03;;;;;;;10.85;5.18;;;;;;;19.22;75.89;101314.28;4997472;28;20033;-74
2023/08/15 05:43:29;;;;;;;8.52;4.47;;;;;;;19.34;75.20;101306.22;5015105;28;20038;-74
2023/08/15 05:45:54;;;;;;;7.93;5.50;;;;;;;19.31;75.28;101309.16;5020654;28;20389;-74
2023/08/15 05:48:19;;;;;;;10.52;5.30;;;;;;;19.26;75.78;101311.28;5021076;28;20030;-73
2023/08/15 05:50:45;;;;;;;12.93;5.18;;;;;;;19.24;76.46;101312.34;5013259;28;20038;-74
2023/08/15 05:53:10;;;;;;;16.27;5.75;;;;;;;19.26;76.56;101322.03;5011698;28;20025;-74
2023/08/15 05:55:35;;;;;;;10.25;5.25;;;;;;;19.31;76.61;101327.06;5007995;28;20034;-74
2023/08/15 05:58:01;;;;;;;12.82;6.00;;;;;;;19.40;76.29;101322.84;5010394;28;20044;-74
2023/08/15 06:00:26;;;;;;;9.65;5.45;;;;;;;19.60;75.64;101330.41;4993535;28;20045;-73
2023/08/15 06:02:51;;;;;;;14.07;5.55;;;;;;;19.69;75.32;101326.25;5018554;28;20025;-73
2023/08/15 06:05:17;;;;;;;13.35;5.85;;;;;;;19.74;75.22;101337.50;4993152;28;20057;-73
2023/08/15 06:07:42;;;;;;;11.45;6.25;;;;;;;19.79;74.89;101338.88;5018122;28;20041;-73
2023/08/15 06:10:07;;;;;;;13.93;6.28;;;;;;;19.88;74.85;101340.06;4988912;28;20465;-73
2023/08/15 06:12:33;;;;;;;15.55;5.90;;;;;;;19.96;74.82;101336.81;5004172;28;20153;-73
2023/08/15 06:14:58;;;;;;;11.02;6.63;;;;;;;19.96;74.98;101343.06;4997668;28;20072;-73
2023/08/15 06:17:23;;;;;;;14.70;6.63;;;;;;;19.88;75.63;101356.16;5011904;28;20418;-73
2023/08/15 06:19:49;;;;;;;13.80;5.93;;;;;;;19.93;75.02;101363.88;5011179;28;20032;-74
2023/08/15 06:22:15;;;;;;;13.65;6.90;;;;;;;19.99;75.04;101358.94;5013732;28;20445;-74
2023/08/15 06:24:40;;;;;;;15.40;7.53;;;;;;;19.99;74.81;101348.19;4991601;28;20022;-74
2023/08/15 06:27:05;;;;;;;11.38;5.95;;;;;;;20.13;74.16;101361.47;5009742;28;20041;-73
2023/08/15 06:29:31;;;;;;;12.32;6.57;;;;;;;20.13;73.71;101356.09;5006804;28;20096;-73
2023/08/15 06:31:57;;;;;;;12.15;6.57;;;;;;;20.15;74.22;101365.91;5013193;28;20029;-73
2023/08/15 06:34:23;;;;;;;8.77;6.45;;;;;;;20.13;74.21;101356.09;5017382;28;20071;-74
2023/08/15 06:36:48;;;;;;;16.17;6.78;;;;;;;20.20;74.53;101361.91;5008859;28;20440;-73
2023/08/15 06:39:13;;;;;;;16.50;7.63;;;;;;;20.28;73.84;101364.03;5010223;28;20112;-73
2023/08/15 06:41:39;;;;;;;14.85;7.05;;;;;;;20.44;73.49;101371.84;5009824;28;20025;-72
2023/08/15 06:44:04;;;;;;;15.00;6.85;;;;;;;20.55;72.85;101378.16;5012245;28;20026;-73
2023/08/15 06:46:29;;;;;;;13.02;7.30;;;;;;;20.61;72.85;101377.72;5012282;28;20025;-73
2023/08/15 06:48:55;;;;;;;12.75;6.18;;;;;;;20.72;72.42;101374.22;5014431;28;20079;-74
2023/08/15 06:51:20;;;;;;;15.38;7.10;;;;;;;20.80;71.96;101371.84;5006426;28;20030;-73
2023/08/15 06:53:49;;;;;;;13.38;7.30;;;;;;;20.88;71.71;101376.63;5006211;28;20034;-73
2023/08/15 06:56:14;;;;;;;14.90;7.32;;;;;;;20.83;71.77;101381.47;5005228;28;20029;-73
2023/08/15 06:58:40;;;;;;;15.27;7.05;;;;;;;20.77;71.91;101374.75;5008087;28;20018;-73
2023/08/15 07:01:06;;;;;;;17.73;6.85;;;;;;;20.91;71.96;101376.41;5006128;28;20029;-73
2023/08/15 07:03:33;;;;;;;13.60;7.18;;;;;;;21.12;70.55;101382.84;5011613;28;20029;-72
2023/08/15 07:05:59;;;;;;;10.13;6.32;;;;;;;21.24;70.14;101378.34;5004550;28;20619;-73
2023/08/15 07:08:24;;;;;;;13.57;6.30;;;;;;;21.25;70.20;101377.38;5003603;28;20026;-73
2023/08/15 07:10:54;;;;;;;15.75;6.97;;;;;;;21.43;70.01;101376.97;5006540;28;20019;-73
2023/08/15 07:13:19;;;;;;;16.13;6.35;;;;;;;21.53;70.01;101375.28;4985576;28;20107;-74
2023/08/15 07:15:45;;;;;;;10.15;5.80;;;;;;;21.75;69.40;101383.41;5002364;28;20383;-73
2023/08/15 07:18:10;;;;;;;10.73;5.15;;;;;;;21.77;67.64;101384.13;5002535;28;20112;-73
2023/08/15 07:20:35;;;;;;;14.90;6.25;;;;;;;21.70;68.51;101382.91;5002321;28;20483;-73
2023/08/15 07:23:01;;;;;;;12.98;6.07;;;;;;;21.85;68.61;101381.69;5007733;28;20018;-73
2023/08/15 07:25:26;;;;;;;13.43;5.70;;;;;;;22.00;67.50;101384.13;4996761;28;20029;-73
2023/08/15 07:27:51;;;;;;;14.80;5.90;;;;;;;22.06;67.87;101391.75;5005249;28;20122;-73
2023/08/15 07:30:17;;;;;;;11.68;5.20;;;;;;;22.30;66.91;101392.50;5001895;28;20144;-73
2023/08/15 07:32:45;;;;;;;13.80;5.75;;;;;;;22.50;65.69;101392.72;5008531;28;20030;-74
2023/08/15 07:35:10;;;;;;;7.80;4.40;;;;;;;22.71;66.08;101399.06;5013310;28;20080;-73
2023/08/15 07:37:36;;;;;;;9.18;4.97;;;;;;;22.83;65.19;101392.63;5011328;28;20059;-73
2023/08/15 07:40:07;;;;;;;11.55;5.05;;;;;;;22.93;64.00;101398.13;5006861;28;20412;-73
2023/08/15 07:42:33;;;;;;;10.90;3.92;;;;;;;23.00;64.06;101414.69;5000538;28;20307;-73
2023/08/15 07:44:58;;;;;;;11.55;4.35;;;;;;;22.92;63.70;101409.91;5006405;28;20025;-73
2023/08/15 07:47:24;;;;;;;9.10;4.03;;;;;;;23.03;62.49;101407.16;5004121;28;20030;-74
2023/08/15 07:49:49;;;;;;;9.93;3.50;;;;;;;23.08;63.23;101415.75;5006331;28;20054;-73
2023/08/15 07:52:14;;;;;;;10.48;3.72;;;;;;;23.02;62.32;101415.41;5005191;28;20026;-73
2023/08/15 07:54:42;;;;;;;7.03;3.80;;;;;;;23.01;62.79;101414.53;5006440;28;20029;-77
2023/08/15 07:57:08;;;;;;;10.63;3.78;;;;;;;23.07;62.21;101416.72;4996892;28;20049;-76
2023/08/15 07:59:33;;;;;;;9.27;3.38;;;;;;;23.30;61.60;101420.19;5003459;28;20111;-78
2023/08/15 08:01:58;;;;;;;7.97;4.05;;;;;;;23.57;60.99;101416.13;5010078;28;20584;-78
2023/08/15 08:04:24;;;;;;;9.00;3.38;;;;;;;23.86;60.54;101421.72;5007066;28;20125;-73
2023/08/15 08:06:49;;;;;;;8.20;3.10;;;;;;;24.11;61.14;101417.75;5012267;28;20519;-74
2023/08/15 08:09:14;;;;;;;11.40;3.90;;;;;;;24.10;59.66;101416.88;5018533;28;20165;-74
2023/08/15 08:11:40;;;;;;;10.38;3.75;;;;;;;24.15;59.54;101419.16;5009610;28;20552;-74
2023/08/15 08:14:05;;;;;;;8.73;2.78;;;;;;;24.08;59.09;101423.41;5017234;28;20035;-73
2023/08/15 08:16:30;;;;;;;11.85;3.17;;;;;;;24.30;58.92;101419.69;5007236;28;20473;-74
2023/08/15 08:18:56;;;;;;;10.40;2.90;;;;;;;24.39;59.42;101417.03;5009752;28;20030;-73
2023/08/15 08:21:22;;;;;;;9.57;3.80;;;;;;;24.25;59.28;101419.19;5004768;28;20037;-76
2023/08/15 08:23:47;;;;;;;6.93;2.92;;;;;;;24.13;58.26;101426.56;5005930;28;20046;-76
2023/08/15 08:26:12;;;;;;;8.18;3.83;;;;;;;24.08;59.40;101423.41;5008766;28;20052;-75
2023/08/15 08:28:38;;;;;;;7.95;3.28;;;;;;;24.68;57.82;101425.22;4989895;28;20068;-76
2023/08/15 08:31:04;;;;;;;7.68;3.47;;;;;;;24.66;57.80;101427.19;5008039;28;20064;-79
2023/08/15 08:33:29;;;;;;;9.23;3.20;;;;;;;24.75;56.46;101424.66;5010993;28;20032;-76
2023/08/15 08:35:54;;;;;;;10.05;3.88;;;;;;;24.99;57.41;101427.81;5005665;28;20056;-76
2023/08/15 08:38:20;;;;;;;10.38;3.60;;;;;;;25.41;56.24;101424.84;5009778;28;20485;-76
2023/08/15 08:40:47;;;;;;;10.40;3.78;;;;;;;25.51;54.27;101424.84;5006796;28;20022;-76
2023/08/15 08:43:14;;;;;;;12.80;4.10;;;;;;;25.59;55.53;101427.69;4989044;28;20124;-76
2023/08/15 08:45:41;;;;;;;11.10;3.35;;;;;;;25.50;55.76;101424.00;5002491;28;20076;-76
2023/08/15 08:48:08;;;;;;;10.70;3.55;;;;;;;25.37;56.45;101427.03;5012447;28;20032;-76
2023/08/15 08:50:34;;;;;;;8.68;4.10;;;;;;;25.40;56.33;101429.41;5009448;28;20033;-76
2023/08/15 08:53:00;;;;;;;9.07;3.60;;;;;;;25.26;55.51;101429.00;5001251;28;20053;-75
2023/08/15 08:55:26;;;;;;;10.00;3.65;;;;;;;25.24;56.49;101429.16;5003650;28;20026;-75
2023/08/15 08:57:53;;;;;;;11.27;4.20;;;;;;;25.44;55.60;101430.84;5005266;28;20025;-76
2023/08/15 09:00:24;;;;;;;11.98;4.18;;;;;;;25.42;55.51;101432.00;5001699;28;20537;-76
2023/08/15 09:02:50;;;;;;;9.35;4.47;;;;;;;25.42;56.67;101432.00;5006040;28;20021;-77
2023/08/15 09:05:16;;;;;;;7.28;3.55;;;;;;;25.83;54.69;101436.22;5000876;28;20034;-76
2023/08/15 09:07:42;;;;;;;8.57;3.60;;;;;;;25.79;55.77;101439.41;5012861;28;20029;-77
2023/08/15 09:10:08;;;;;;;8.40;3.78;;;;;;;25.83;54.24;101440.78;4991744;28;20547;-74
2023/08/15 09:12:38;;;;;;;8.93;3.70;;;;;;;25.66;55.37;101443.22;5003723;28;21494;-77
2023/08/15 09:15:05;;;;;;;9.20;3.15;;;;;;;25.64;54.88;101439.78;5006587;28;20025;-78
2023/08/15 09:17:31;;;;;;;8.40;3.85;;;;;;;25.59;56.32;101446.66;5004921;28;20491;-77
2023/08/15 09:19:57;;;;;;;7.50;3.63;;;;;;;25.48;55.27;101449.53;5009735;28;20026;-77
2023/08/15 09:22:24;;;;;;;8.82;3.22;;;;;;;26.15;54.10;101443.97;5005217;28;20040;-75
2023/08/15 09:24:50;;;;;;;7.68;3.10;;;;;;;26.73;51.93;101444.75;5006298;28;20026;-73
2023/08/15 09:27:16;;;;;;;9.15;3.40;;;;;;;27.06;50.84;101452.22;5008008;28;20084;-73
2023/08/15 09:29:41;;;;;;;8.73;3.17;;;;;;;27.38;49.13;101464.44;5008100;28;20057;-74
2023/08/15 09:32:08;;;;;;;8.25;2.83;;;;;;;27.33;50.70;101467.63;5002841;28;20061;-73
2023/08/15 09:34:33;;;;;;;10.75;2.85;;;;;;;28.03;50.59;101464.97;4973121;28;20037;-73
2023/08/15 09:36:58;;;;;;;12.27;3.00;;;;;;;28.88;46.24;101465.91;5011476;28;20030;-73
2023/08/15 09:39:24;;;;;;;8.02;3.15;;;;;;;29.61;44.86;101465.22;5007756;28;20288;-73
2023/08/15 09:41:52;;;;;;;8.68;3.10;;;;;;;30.15;44.82;101465.47;5002494;28;20018;-73
2023/08/15 09:44:33;;;;;;;9.80;4.00;;;;;;;30.07;45.17;101456.44;5007637;28;20037;-73
2023/08/15 09:47:00;;;;;;;6.70;2.90;;;;;;;29.93;44.97;101456.13;5006900;28;20021;-74
2023/08/15 09:49:27;;;;;;;9.20;3.20;;;;;;;29.91;44.08;101462.78;5014746;28;20079;-73
2023/08/15 09:51:53;;;;;;;5.00;3.17;;;;;;;29.76;43.68;101467.25;5008406;28;20120;-74
2023/08/15 09:54:18;;;;;;;10.18;3.83;;;;;;;29.54;44.25;101463.28;5005293;28;20171;-74
2023/08/15 09:56:44;;;;;;;7.70;3.30;;;;;;;29.30;44.38;101464.97;5012302;28;20031;-74
2023/08/15 09:59:09;;;;;;;9.45;3.38;;;;;;;29.10;44.53;101466.31;5009700;28;20053;-74
2023/08/15 10:01:38;;;;;;;9.52;3.28;;;;;;;28.95;45.58;101480.56;5013187;28;20026;-73
2023/08/15 10:04:07;;;;;;;9.85;3.28;;;;;;;28.78;45.72;101480.69;5008110;28;20104;-74
2023/08/15 10:06:34;;;;;;;7.70;2.60;;;;;;;28.78;45.84;101491.56;5003738;28;20679;-74
2023/08/15 10:09:01;;;;;;;5.63;2.45;;;;;;;28.47;45.99;101494.81;5003580;28;20035;-74
2023/08/15 10:11:30;;;;;;;8.82;2.90;;;;;;;27.82;48.23;101499.81;5014362;28;20489;-77
2023/08/15 10:13:57;;;;;;;9.00;2.67;;;;;;;27.76;48.73;101495.88;5007239;28;20079;-74
2023/08/15 10:16:23;;;;;;;9.25;3.33;;;;;;;27.81;47.85;101490.81;5004017;28;20030;-73
2023/08/15 10:18:57;;;;;;;6.05;2.53;;;;;;;28.02;48.86;101504.03;5012611;28;20045;-74
2023/08/15 10:21:23;;;;;;;9.13;2.45;;;;;;;27.76;47.71;101501.31;5005112;28;20026;-77
2023/08/15 10:23:52;;;;;;;7.10;2.47;;;;;;;27.89;47.99;101503.63;5001162;28;20453;-78
2023/08/15 10:26:17;;;;;;;9.43;3.10;;;;;;;27.80;47.45;101499.97;5004548;28;20026;-76
2023/08/15 10:28:45;;;;;;;5.55;2.58;;;;;;;28.08;48.50;101502.56;4987694;28;20038;-72
2023/08/15 10:31:11;;;;;;;8.38;2.88;;;;;;;28.38;46.50;101507.53;5001755;28;20041;-73
2023/08/15 10:33:37;;;;;;;6.93;2.40;;;;;;;28.75;46.17;101502.75;5005713;28;20033;-73
2023/08/15 10:36:02;;;;;;;8.43;2.35;;;;;;;28.19;45.56;101514.00;5009200;28;20026;-72
2023/08/15 10:38:30;;;;;;;6.30;2.73;;;;;;;28.09;46.13;101517.84;5013902;28;20094;-72
2023/08/15 10:41:02;;;;;;;7.03;2.20;;;;;;;27.72;47.00;101513.50;5006428;28;20037;-75
2023/08/15 10:43:30;;;;;;;6.03;3.03;;;;;;;27.62;47.71;101512.69;5007021;28;20452;-76
2023/08/15 10:46:06;;;;;;;8.65;3.10;;;;;;;27.79;47.75;101519.13;5003584;28;20029;-78
2023/08/15 10:48:41;;;;;;;11.30;2.63;;;;;;;28.21;47.27;101519.28;5008682;28;20497;-77
2023/08/15 10:51:36;;;;;;;6.70;2.47;;;;;;;28.84;47.36;101512.66;5011078;28;20440;-77
2023/08/15 10:54:03;;;;;;;4.43;2.25;;;;;;;28.61;45.60;101513.25;5004910;28;20083;-77
2023/08/15 10:56:31;;;;;;;5.95;2.38;;;;;;;29.16;44.00;101503.78;5003554;28;20757;-78
2023/08/15 10:58:58;;;;;;;7.25;2.63;;;;;;;29.24;43.97;101503.81;5008006;28;20037;-74
2023/08/15 11:01:28;;;;;;;6.18;2.40;;;;;;;29.42;43.95;101500.91;5006813;28;20041;-73
2023/08/15 11:03:56;;;;;;;6.32;2.70;;;;;;;29.61;43.01;101507.94;5005396;28;20044;-74
2023/08/15 11:06:22;;;;;;;8.55;2.75;;;;;;;30.24;41.61;101502.63;5005081;28;20621;-74
2023/08/15 11:08:56;;;;;;;6.88;2.28;;;;;;;30.49;43.40;101499.81;5007641;28;20116;-73
2023/08/15 11:11:22;;;;;;;9.60;2.28;;;;;;;30.51;40.20;101508.69;5001986;28;20038;-73
2023/08/15 11:13:49;;;;;;;5.45;2.22;;;;;;;30.29;41.18;101504.81;4997865;28;20022;-73
2023/08/15 11:16:16;;;;;;;5.88;2.30;;;;;;;30.12;40.39;101501.25;5007426;28;20076;-72
2023/08/15 11:18:42;;;;;;;6.82;2.10;;;;;;;30.77;40.31;101492.03;4997155;28;20022;-73